Accueil
METAR-TAF:

METAR-TAF

Aéroports :

Chandler Regional Airport

Chandler, Oklahoma, États-Unis

latitude: 35-43-26N, longitude: 096-49-13W, altitude: 300 m

Observation

Le bulletin a été fait il y a 9 minutes, à 17:35 UTC
Vent 8 kt de nord-ouest
Température 21°C
Humidité 78%
Pression 1018 hPa
Visibilité: 16.1 km
Nuages épars à une hauteur de 1300 ft
Nuages fragmentés à une hauteur de 1800 ft
Ciel couvert à une hauteur de 4200 ft

METAR: KCQB 201735Z AUTO 32008KT 10SM SCT013 BKN018 OVC042 21/17 A3006 RMK AO2 T02060172

Heure: 12:44 (17:44 UTC)


TAF: absent

Observations et prévisions météorologiques de plus de 4000 aéroports (messages METAR et TAF).

Les stations disponibles sont représentées par des disques jaunes et rouges sur la carte.

Passer la souris dessus pour voir le nom de la station.

Cliquer dessus pour voir les observations et prévisions météorologiques.

Pour changer de carte: cliquez sur les boutons verts avec une croix noire pour zoomer, sur le bouton vert avec un tiret pour effectuer un zoom arrière, ou sur les flèches vertes pour les cartes adjacentes.


METAR-TAF: